Time,TemperatureF,DewpointF,PressureIn,WindDirection,WindDirectionDegrees,WindSpeedMPH,WindSpeedGustMPH,Humidity,HourlyPrecipIn,Conditions,Clouds,dailyrainin,SoftwareType,DateUTC
2013-03-19 00:09:00,60.7,44.0,28.84,ENE,71,7.0,13.0,55,0.00,,,0.00,weatherlink.com 1.10,2013-03-19 05:09:00,
2013-03-19 00:24:00,60.2,44.0,28.84,East,87,10.0,14.0,56,0.00,,,0.00,weatherlink.com 1.10,2013-03-19 05:24:00,
2013-03-19 00:39:00,59.9,45.0,28.84,East,86,7.0,13.0,58,0.00,,,0.00,weatherlink.com 1.10,2013-03-19 05:39:00,
2013-03-19 00:54:00,59.9,44.0,28.84,ENE,70,10.0,14.0,56,0.00,,,0.00,weatherlink.com 1.10,2013-03-19 05:54:00,
2013-03-19 01:09:00,59.2,44.0,28.84,ENE,62,7.0,13.0,58,0.00,,,0.00,weatherlink.com 1.10,2013-03-19 06:09:00,
2013-03-19 01:24:00,58.9,44.0,28.84,ENE,70,8.0,13.0,58,0.00,,,0.00,weatherlink.com 1.10,2013-03-19 06:24:00,
2013-03-19 01:39:00,58.4,44.0,28.84,East,82,7.0,13.0,59,0.00,,,0.00,weatherlink.com 1.10,2013-03-19 06:39:00,
2013-03-19 01:54:00,57.5,44.0,28.84,ENE,67,8.0,13.0,61,0.00,,,0.00,weatherlink.com 1.10,2013-03-19 06:54:00,
2013-03-19 02:09:00,57.3,44.0,28.84,East,81,8.0,11.0,61,0.00,,,0.00,weatherlink.com 1.10,2013-03-19 07:09:00,
2013-03-19 02:24:00,57.5,44.0,28.83,East,79,7.0,14.0,61,0.00,,,0.00,weatherlink.com 1.10,2013-03-19 07:24:00,
2013-03-19 02:39:00,57.5,44.0,28.83,ENE,74,8.0,14.0,60,0.00,,,0.00,weatherlink.com 1.10,2013-03-19 07:39:00,
2013-03-19 02:54:00,57.3,43.0,28.83,ENE,58,8.0,16.0,60,0.00,,,0.00,weatherlink.com 1.10,2013-03-19 07:54:00,
2013-03-19 03:09:00,57.5,43.0,28.83,ENE,62,8.0,15.0,59,0.00,,,0.00,weatherlink.com 1.10,2013-03-19 08:09:00,
2013-03-19 03:24:00,57.3,43.0,28.83,ENE,75,9.0,14.0,60,0.00,,,0.00,weatherlink.com 1.10,2013-03-19 08:24:00,
2013-03-19 03:39:00,56.6,43.0,28.83,ENE,71,8.0,10.0,61,0.00,,,0.00,weatherlink.com 1.10,2013-03-19 08:39:00,
2013-03-19 03:54:00,56.3,43.0,28.83,ENE,78,7.0,10.0,61,0.00,,,0.00,weatherlink.com 1.10,2013-03-19 08:54:00,
2013-03-19 04:09:00,56.2,43.0,28.83,East,80,2.0,11.0,61,0.00,,,0.00,weatherlink.com 1.10,2013-03-19 09:09:00,
2013-03-19 04:24:00,55.4,42.0,28.83,East,92,5.0,11.0,62,0.00,,,0.00,weatherlink.com 1.10,2013-03-19 09:24:00,
2013-03-19 04:39:00,55.1,42.0,28.82,ENE,65,5.0,10.0,62,0.00,,,0.00,weatherlink.com 1.10,2013-03-19 09:39:00,
2013-03-19 04:54:00,55.0,42.0,28.82,East,84,3.0,13.0,62,0.00,,,0.00,weatherlink.com 1.10,2013-03-19 09:54:00,
2013-03-19 05:09:00,54.7,41.0,28.83,East,84,6.0,11.0,61,0.00,,,0.00,weatherlink.com 1.10,2013-03-19 10:09:00,
2013-03-19 05:24:00,54.5,42.0,28.83,East,82,1.0,8.0,62,0.00,,,0.00,weatherlink.com 1.10,2013-03-19 10:24:00,
2013-03-19 05:39:00,53.8,42.0,28.83,East,82,2.0,4.0,64,0.00,,,0.00,weatherlink.com 1.10,2013-03-19 10:39:00,
2013-03-19 05:54:00,53.1,42.0,28.84,East,82,0.0,2.0,65,0.00,,,0.00,weatherlink.com 1.10,2013-03-19 10:54:00,
2013-03-19 06:09:00,52.6,42.0,28.84,East,82,0.0,1.0,67,0.00,,,0.00,weatherlink.com 1.10,2013-03-19 11:09:00,
2013-03-19 06:24:00,52.8,42.0,28.84,East,82,0.0,3.0,66,0.00,,,0.00,weatherlink.com 1.10,2013-03-19 11:24:00,
2013-03-19 06:39:00,52.5,42.0,28.85,East,82,0.0,1.0,67,0.00,,,0.00,weatherlink.com 1.10,2013-03-19 11:39:00,
2013-03-19 06:55:00,51.9,42.0,28.85,East,82,0.0,0.0,69,0.00,,,0.00,weatherlink.com 1.10,2013-03-19 11:55:00,
2013-03-19 07:10:00,51.6,43.0,28.86,East,82,0.0,0.0,72,0.00,,,0.00,weatherlink.com 1.10,2013-03-19 12:10:00,
2013-03-19 07:25:00,51.0,43.0,28.86,East,82,0.0,0.0,75,0.00,,,0.00,weatherlink.com 1.10,2013-03-19 12:25:00,
2013-03-19 07:40:00,50.1,43.0,28.86,East,82,0.0,0.0,76,0.00,,,0.00,weatherlink.com 1.10,2013-03-19 12:40:00,
2013-03-19 07:55:00,49.1,42.0,28.86,East,82,0.0,1.0,77,0.00,,,0.00,weatherlink.com 1.10,2013-03-19 12:55:00,
2013-03-19 08:10:00,49.2,42.0,28.86,East,82,0.0,3.0,76,0.00,,,0.00,weatherlink.com 1.10,2013-03-19 13:10:00,
2013-03-19 08:25:00,50.1,42.0,28.86,East,82,0.0,3.0,75,0.00,,,0.00,weatherlink.com 1.10,2013-03-19 13:25:00,
2013-03-19 08:40:00,51.1,43.0,28.86,East,82,0.0,-999.0,73,-99.99,,,0.00,weatherlink.com 1.10,2013-03-19 13:40:00,
2013-03-19 08:55:00,53.3,44.0,28.87,East,82,0.0,0.0,70,0.00,,,0.00,weatherlink.com 1.10,2013-03-19 13:55:00,
2013-03-19 09:10:00,55.3,44.0,28.87,East,82,1.0,2.0,66,0.00,,,0.00,weatherlink.com 1.10,2013-03-19 14:10:00,
2013-03-19 09:25:00,56.5,45.0,28.88,East,82,1.0,3.0,66,0.00,,,0.00,weatherlink.com 1.10,2013-03-19 14:25:00,
2013-03-19 09:40:00,58.9,47.0,28.88,East,96,3.0,6.0,65,0.00,,,0.00,weatherlink.com 1.10,2013-03-19 14:40:00,
2013-03-19 09:55:00,59.6,49.0,28.88,East,84,2.0,10.0,67,0.00,,,0.00,weatherlink.com 1.10,2013-03-19 14:55:00,
2013-03-19 10:10:00,61.2,50.0,28.88,East,94,2.0,8.0,66,0.00,,,0.00,weatherlink.com 1.10,2013-03-19 15:10:00,
2013-03-19 10:25:00,62.6,50.0,28.88,SSE,154,0.0,8.0,64,0.00,,,0.00,weatherlink.com 1.10,2013-03-19 15:25:00,
2013-03-19 10:40:00,63.5,51.0,28.88,SSE,159,2.0,10.0,64,0.00,,,0.00,weatherlink.com 1.10,2013-03-19 15:40:00,
2013-03-19 10:55:00,64.8,53.0,28.88,SSE,166,6.0,13.0,66,0.00,,,0.00,weatherlink.com 1.10,2013-03-19 15:55:00,
2013-03-19 11:10:00,66.8,54.0,28.88,ESE,104,4.0,13.0,63,0.00,,,0.00,weatherlink.com 1.10,2013-03-19 16:10:00,
2013-03-19 11:25:00,67.1,54.0,28.87,SSE,153,1.0,14.0,64,0.00,,,0.00,weatherlink.com 1.10,2013-03-19 16:25:00,
2013-03-19 11:40:00,67.6,54.0,28.87,SW,221,9.0,10.0,63,0.00,,,0.00,weatherlink.com 1.10,2013-03-19 16:40:00,
2013-03-19 11:55:00,67.9,54.0,28.87,South,178,0.0,11.0,61,0.00,,,0.00,weatherlink.com 1.10,2013-03-19 16:55:00,
2013-03-19 12:10:00,69.1,54.0,28.86,WSW,241,4.0,10.0,58,0.00,,,0.00,weatherlink.com 1.10,2013-03-19 17:10:00,
2013-03-19 12:25:00,70.1,53.0,28.86,South,180,2.0,9.0,55,0.00,,,0.00,weatherlink.com 1.10,2013-03-19 17:25:00,
2013-03-19 12:40:00,70.6,54.0,28.85,ESE,120,3.0,9.0,55,0.00,,,0.00,weatherlink.com 1.10,2013-03-19 17:40:00,
2013-03-19 12:55:00,71.6,54.0,28.85,South,172,3.0,6.0,54,0.00,,,0.00,weatherlink.com 1.10,2013-03-19 17:55:00,
2013-03-19 13:10:00,73.0,54.0,28.84,SW,227,4.0,8.0,52,0.00,,,0.00,weatherlink.com 1.10,2013-03-19 18:10:00,
2013-03-19 13:25:00,71.5,54.0,28.83,WSW,238,4.0,6.0,55,0.00,,,0.00,weatherlink.com 1.10,2013-03-19 18:25:00,
2013-03-19 13:40:00,72.1,54.0,28.82,SE,128,1.0,6.0,54,0.00,,,0.00,weatherlink.com 1.10,2013-03-19 18:40:00,
2013-03-19 13:55:00,74.4,54.0,28.81,SSW,208,4.0,8.0,50,0.00,,,0.00,weatherlink.com 1.10,2013-03-19 18:55:00,
2013-03-19 14:11:00,76.8,54.0,28.80,SSW,194,1.0,15.0,46,0.00,,,0.00,weatherlink.com 1.10,2013-03-19 19:11:00,
2013-03-19 14:25:00,78.5,55.0,28.79,South,175,7.0,9.0,44,0.00,,,0.00,weatherlink.com 1.10,2013-03-19 19:25:00,
2013-03-19 14:40:00,80.1,52.0,28.77,ESE,119,4.0,11.0,38,0.00,,,0.00,weatherlink.com 1.10,2013-03-19 19:40:00,
2013-03-19 14:55:00,81.4,52.0,28.76,SSE,167,15.0,18.0,36,0.00,,,0.00,weatherlink.com 1.10,2013-03-19 19:55:00,
2013-03-19 15:10:00,83.0,52.0,28.75,South,178,6.0,13.0,34,0.00,,,0.00,weatherlink.com 1.10,2013-03-19 20:10:00,
2013-03-19 15:25:00,82.0,52.0,28.74,SSE,147,0.0,14.0,35,0.00,,,0.00,weatherlink.com 1.10,2013-03-19 20:25:00,
2013-03-19 15:41:00,82.0,52.0,28.74,SSE,167,2.0,10.0,35,0.00,,,0.00,weatherlink.com 1.10,2013-03-19 20:41:00,
2013-03-19 15:56:00,82.6,52.0,28.73,SE,136,1.0,7.0,35,0.00,,,0.00,weatherlink.com 1.10,2013-03-19 20:56:00,
2013-03-19 16:11:00,84.0,51.0,28.73,South,182,6.0,13.0,32,0.00,,,0.00,weatherlink.com 1.10,2013-03-19 21:11:00,
2013-03-19 16:26:00,83.6,51.0,28.72,ESE,111,3.0,9.0,32,0.00,,,0.00,weatherlink.com 1.10,2013-03-19 21:26:00,
2013-03-19 16:41:00,84.1,52.0,28.72,SSW,211,1.0,7.0,33,0.00,,,0.00,weatherlink.com 1.10,2013-03-19 21:41:00,
2013-03-19 16:56:00,85.1,49.0,28.72,SSW,200,5.0,15.0,29,0.00,,,0.00,weatherlink.com 1.10,2013-03-19 21:56:00,
2013-03-19 17:11:00,83.8,50.0,28.71,SE,143,1.0,7.0,31,0.00,,,0.00,weatherlink.com 1.10,2013-03-19 22:11:00,
2013-03-19 17:41:00,79.9,55.0,28.72,NE,43,12.0,17.0,43,0.00,,,0.00,weatherlink.com 1.10,2013-03-19 22:41:00,
2013-03-19 18:11:00,76.8,56.0,28.71,ENE,75,15.0,24.0,48,0.00,,,0.00,weatherlink.com 1.10,2013-03-19 23:11:00,
2013-03-19 18:26:00,75.1,56.0,28.71,ENE,58,18.0,23.0,51,0.00,,,0.00,weatherlink.com 1.10,2013-03-19 23:26:00,
2013-03-19 18:41:00,74.0,56.0,28.72,ENE,65,16.0,23.0,53,0.00,,,0.00,weatherlink.com 1.10,2013-03-19 23:41:00,
2013-03-19 18:56:00,72.7,55.0,28.72,ENE,72,16.0,30.0,55,0.00,,,0.00,weatherlink.com 1.10,2013-03-19 23:56:00,
2013-03-19 19:26:00,71.1,55.0,28.76,North,11,9.0,24.0,58,0.00,,,0.00,weatherlink.com 1.10,2013-03-20 00:26:00,
2013-03-19 19:41:00,69.6,55.0,28.76,ENE,76,16.0,24.0,61,0.00,,,0.00,weatherlink.com 1.10,2013-03-20 00:41:00,
2013-03-19 19:56:00,68.6,55.0,28.76,ENE,67,17.0,22.0,62,0.00,,,0.00,weatherlink.com 1.10,2013-03-20 00:56:00,
2013-03-19 20:26:00,66.3,53.0,28.77,ENE,67,10.0,21.0,63,0.00,,,0.00,weatherlink.com 1.10,2013-03-20 01:26:00,
2013-03-19 20:56:00,65.0,52.0,28.81,NE,55,14.0,23.0,62,0.00,,,0.00,weatherlink.com 1.10,2013-03-20 01:56:00,
2013-03-19 21:11:00,63.9,51.0,28.80,ENE,72,19.0,27.0,63,0.00,,,0.00,weatherlink.com 1.10,2013-03-20 02:11:00,
2013-03-19 21:26:00,61.6,51.0,28.81,NE,42,6.0,30.0,68,0.00,,,0.00,weatherlink.com 1.10,2013-03-20 02:26:00,
2013-03-19 21:57:00,56.5,52.0,28.84,NE,36,5.0,24.0,86,0.04,,,0.04,weatherlink.com 1.10,2013-03-20 02:57:00,
2013-03-19 22:12:00,56.5,53.0,28.85,ESE,103,5.0,11.0,88,0.07,,,0.07,weatherlink.com 1.10,2013-03-20 03:12:00,
2013-03-19 22:27:00,57.0,53.0,28.84,East,86,9.0,19.0,85,0.09,,,0.09,weatherlink.com 1.10,2013-03-20 03:27:00,
2013-03-19 22:42:00,56.7,52.0,28.88,North,9,2.0,16.0,85,0.11,,,0.11,weatherlink.com 1.10,2013-03-20 03:42:00,
2013-03-19 22:57:00,57.2,53.0,28.89,ENE,65,7.0,9.0,86,0.08,,,0.12,weatherlink.com 1.10,2013-03-20 03:57:00,
2013-03-19 23:12:00,56.9,53.0,28.90,NE,34,1.0,19.0,85,0.07,,,0.14,weatherlink.com 1.10,2013-03-20 04:12:00,
2013-03-19 23:27:00,56.7,52.0,28.90,NE,55,7.0,19.0,85,0.06,,,0.15,weatherlink.com 1.10,2013-03-20 04:27:00,
2013-03-19 23:42:00,57.3,52.0,28.93,NE,56,9.0,17.0,82,0.06,,,0.17,weatherlink.com 1.10,2013-03-20 04:42:00,
2013-03-19 23:57:00,57.6,51.0,28.93,NE,53,10.0,24.0,79,0.06,,,0.18,weatherlink.com 1.10,2013-03-20 04:57:00,